sensor_id;sensor_type;location;lat;lon;timestamp;pressure;altitude;pressure_sealevel;temperature
66372;BMP180;53168;51.146;17.120;2022-08-07T00:45:38;101147.60;;;17.24
66372;BMP180;53168;51.146;17.120;2022-08-07T00:48:17;101146.00;;;17.20
66372;BMP180;53168;51.146;17.120;2022-08-07T00:51:03;101140.00;;;17.00
66372;BMP180;53168;51.146;17.120;2022-08-07T00:53:37;101133.40;;;16.80
66372;BMP180;53168;51.146;17.120;2022-08-07T00:56:22;101137.60;;;16.66
66372;BMP180;53168;51.146;17.120;2022-08-07T00:59:02;101132.00;;;16.50
66372;BMP180;53168;51.146;17.120;2022-08-07T01:01:38;101137.80;;;16.40
66372;BMP180;53168;51.146;17.120;2022-08-07T01:04:17;101137.60;;;16.30
66372;BMP180;53168;51.146;17.120;2022-08-07T01:06:56;101140.40;;;16.18
66372;BMP180;53168;51.146;17.120;2022-08-07T01:09:30;101140.40;;;16.10
66372;BMP180;53168;51.146;17.120;2022-08-07T01:12:24;101144.40;;;16.00
66372;BMP180;53168;51.146;17.120;2022-08-07T01:15:02;101142.40;;;15.92
66372;BMP180;53168;51.146;17.120;2022-08-07T01:17:37;101140.00;;;15.90
66372;BMP180;53168;51.146;17.120;2022-08-07T01:20:14;101141.40;;;15.80
66372;BMP180;53168;51.146;17.120;2022-08-07T01:22:50;101149.60;;;15.70
66372;BMP180;53168;51.146;17.120;2022-08-07T01:25:43;101146.60;;;15.70
66372;BMP180;53168;51.146;17.120;2022-08-07T01:28:28;101147.40;;;15.60
66372;BMP180;53168;51.146;17.120;2022-08-07T01:31:05;101151.00;;;15.50
66372;BMP180;53168;51.146;17.120;2022-08-07T01:33:46;101148.80;;;15.48
66372;BMP180;53168;51.146;17.120;2022-08-07T01:36:30;101147.00;;;15.40
66372;BMP180;53168;51.146;17.120;2022-08-07T01:39:17;101146.40;;;15.30
66372;BMP180;53168;51.146;17.120;2022-08-07T01:42:00;101145.60;;;15.30
66372;BMP180;53168;51.146;17.120;2022-08-07T01:44:54;101150.00;;;15.20
66372;BMP180;53168;51.146;17.120;2022-08-07T01:47:29;101149.60;;;15.20
66372;BMP180;53168;51.146;17.120;2022-08-07T01:50:25;101143.20;;;15.20
66372;BMP180;53168;51.146;17.120;2022-08-07T01:53:02;101144.40;;;15.10
66372;BMP180;53168;51.146;17.120;2022-08-07T01:55:46;101147.40;;;15.10
66372;BMP180;53168;51.146;17.120;2022-08-07T01:58:24;101151.20;;;15.00
66372;BMP180;53168;51.146;17.120;2022-08-07T02:01:11;101149.40;;;15.00
66372;BMP180;53168;51.146;17.120;2022-08-07T02:04:14;101156.00;;;15.00
66372;BMP180;53168;51.146;17.120;2022-08-07T02:06:57;101156.00;;;15.00
66372;BMP180;53168;51.146;17.120;2022-08-07T02:09:33;101152.40;;;14.90
66372;BMP180;53168;51.146;17.120;2022-08-07T02:12:29;101151.40;;;14.90
66372;BMP180;53168;51.146;17.120;2022-08-07T02:15:05;101152.20;;;14.90
66372;BMP180;53168;51.146;17.120;2022-08-07T02:17:45;101151.00;;;14.80
66372;BMP180;53168;51.146;17.120;2022-08-07T02:20:24;101152.40;;;14.80
66372;BMP180;53168;51.146;17.120;2022-08-07T02:23:02;101148.80;;;14.80
66372;BMP180;53168;51.146;17.120;2022-08-07T02:25:40;101148.00;;;14.80
66372;BMP180;53168;51.146;17.120;2022-08-07T02:28:36;101145.20;;;14.70
66372;BMP180;53168;51.146;17.120;2022-08-07T02:31:13;101147.20;;;14.70
66372;BMP180;53168;51.146;17.120;2022-08-07T02:34:03;101147.60;;;14.66
66372;BMP180;53168;51.146;17.120;2022-08-07T02:36:48;101145.00;;;14.60
66372;BMP180;53168;51.146;17.120;2022-08-07T02:39:24;101145.60;;;14.60
66372;BMP180;53168;51.146;17.120;2022-08-07T02:42:22;101142.60;;;14.60
66372;BMP180;53168;51.146;17.120;2022-08-07T02:44:57;101145.60;;;14.60
66372;BMP180;53168;51.146;17.120;2022-08-07T02:47:48;101148.80;;;14.60
66372;BMP180;53168;51.146;17.120;2022-08-07T02:50:23;101149.00;;;14.60
66372;BMP180;53168;51.146;17.120;2022-08-07T02:55:49;101150.00;;;14.50
66372;BMP180;53168;51.146;17.120;2022-08-07T02:58:40;101153.20;;;14.46
66372;BMP180;53168;51.146;17.120;2022-08-07T03:01:20;101155.20;;;14.40
66372;BMP180;53168;51.146;17.120;2022-08-07T03:04:13;101153.80;;;14.40
66372;BMP180;53168;51.146;17.120;2022-08-07T03:06:50;101152.60;;;14.30
66372;BMP180;53168;51.146;17.120;2022-08-07T03:09:28;101146.40;;;14.30
66372;BMP180;53168;51.146;17.120;2022-08-07T03:12:16;101148.20;;;14.22
66372;BMP180;53168;51.146;17.120;2022-08-07T03:15:34;101142.80;;;14.30
66372;BMP180;53168;51.146;17.120;2022-08-07T03:18:30;101145.60;;;14.30
66372;BMP180;53168;51.146;17.120;2022-08-07T03:21:09;101141.20;;;14.40
66372;BMP180;53168;51.146;17.120;2022-08-07T03:23:50;101142.00;;;14.40
66372;BMP180;53168;51.146;17.120;2022-08-07T03:26:48;101139.00;;;14.34
66372;BMP180;53168;51.146;17.120;2022-08-07T03:29:39;101138.80;;;14.30
66372;BMP180;53168;51.146;17.120;2022-08-07T03:32:29;101137.40;;;14.30
66372;BMP180;53168;51.146;17.120;2022-08-07T03:35:12;101135.00;;;14.20
66372;BMP180;53168;51.146;17.120;2022-08-07T03:37:55;101134.00;;;14.30
66372;BMP180;53168;51.146;17.120;2022-08-07T03:40:33;101143.80;;;14.40
66372;BMP180;53168;51.146;17.120;2022-08-07T03:43:14;101147.20;;;14.40
66372;BMP180;53168;51.146;17.120;2022-08-07T03:45:53;101146.00;;;14.50
66372;BMP180;53168;51.146;17.120;2022-08-07T03:48:32;101146.20;;;14.52
66372;BMP180;53168;51.146;17.120;2022-08-07T03:51:28;101145.40;;;14.60
66372;BMP180;53168;51.146;17.120;2022-08-07T03:54:19;101148.40;;;14.58
66372;BMP180;53168;51.146;17.120;2022-08-07T03:57:09;101154.00;;;14.40
66372;BMP180;53168;51.146;17.120;2022-08-07T04:00:07;101146.40;;;14.40
66372;BMP180;53168;51.146;17.120;2022-08-07T04:02:51;101146.40;;;14.30
66372;BMP180;53168;51.146;17.120;2022-08-07T04:05:36;101148.80;;;14.20
66372;BMP180;53168;51.146;17.120;2022-08-07T04:08:24;101143.80;;;14.20
66372;BMP180;53168;51.146;17.120;2022-08-07T04:11:00;101150.80;;;14.20
66372;BMP180;53168;51.146;17.120;2022-08-07T04:13:54;101149.60;;;14.20
66372;BMP180;53168;51.146;17.120;2022-08-07T04:16:50;101154.20;;;14.20
66372;BMP180;53168;51.146;17.120;2022-08-07T04:19:30;101154.60;;;14.30
66372;BMP180;53168;51.146;17.120;2022-08-07T04:22:24;101155.40;;;14.40
66372;BMP180;53168;51.146;17.120;2022-08-07T04:25:03;101154.40;;;14.50
66372;BMP180;53168;51.146;17.120;2022-08-07T04:27:43;101160.00;;;14.58
66372;BMP180;53168;51.146;17.120;2022-08-07T04:30:33;101163.40;;;14.60
66372;BMP180;53168;51.146;17.120;2022-08-07T04:33:24;101162.80;;;14.66
66372;BMP180;53168;51.146;17.120;2022-08-07T04:35:59;101164.00;;;14.70
66372;BMP180;53168;51.146;17.120;2022-08-07T04:38:38;101159.20;;;14.78
66372;BMP180;53168;51.146;17.120;2022-08-07T04:41:12;101155.80;;;14.80
66372;BMP180;53168;51.146;17.120;2022-08-07T04:43:53;101160.80;;;14.80
66372;BMP180;53168;51.146;17.120;2022-08-07T04:47:02;101161.40;;;14.90
66372;BMP180;53168;51.146;17.120;2022-08-07T04:49:56;101161.20;;;14.98
66372;BMP180;53168;51.146;17.120;2022-08-07T04:52:55;101163.80;;;15.08
66372;BMP180;53168;51.146;17.120;2022-08-07T04:55:48;101164.40;;;15.30
66372;BMP180;53168;51.146;17.120;2022-08-07T04:58:51;101169.60;;;15.50
66372;BMP180;53168;51.146;17.120;2022-08-07T05:01:54;101173.60;;;15.60
66372;BMP180;53168;51.146;17.120;2022-08-07T05:04:39;101174.40;;;15.62
66372;BMP180;53168;51.146;17.120;2022-08-07T05:07:24;101175.00;;;15.70
66372;BMP180;53168;51.146;17.120;2022-08-07T05:10:23;101176.00;;;15.72
66372;BMP180;53168;51.146;17.120;2022-08-07T05:13:06;101178.00;;;15.80
66372;BMP180;53168;51.146;17.120;2022-08-07T05:16:02;101178.60;;;15.90
66372;BMP180;53168;51.146;17.120;2022-08-07T05:18:53;101180.00;;;15.96
66372;BMP180;53168;51.146;17.120;2022-08-07T05:21:30;101180.00;;;16.00
66372;BMP180;53168;51.146;17.120;2022-08-07T05:24:27;101184.20;;;16.10
66372;BMP180;53168;51.146;17.120;2022-08-07T05:27:15;101184.00;;;16.20
66372;BMP180;53168;51.146;17.120;2022-08-07T05:30:14;101184.40;;;16.38
66372;BMP180;53168;51.146;17.120;2022-08-07T05:33:06;101185.20;;;16.50
66372;BMP180;53168;51.146;17.120;2022-08-07T05:35:44;101184.60;;;16.60
66372;BMP180;53168;51.146;17.120;2022-08-07T05:38:20;101182.20;;;16.68
66372;BMP180;53168;51.146;17.120;2022-08-07T05:41:14;101179.80;;;16.80
66372;BMP180;53168;51.146;17.120;2022-08-07T05:43:56;101182.20;;;16.90
66372;BMP180;53168;51.146;17.120;2022-08-07T05:46:46;101188.20;;;16.98
66372;BMP180;53168;51.146;17.120;2022-08-07T05:49:27;101194.00;;;17.10
66372;BMP180;53168;51.146;17.120;2022-08-07T05:52:13;101192.40;;;17.14
66372;BMP180;53168;51.146;17.120;2022-08-07T05:54:51;101197.60;;;17.20
66372;BMP180;53168;51.146;17.120;2022-08-07T05:57:31;101198.80;;;17.30
66372;BMP180;53168;51.146;17.120;2022-08-07T06:00:15;101201.40;;;17.40
66372;BMP180;53168;51.146;17.120;2022-08-07T06:02:59;101205.40;;;17.50
66372;BMP180;53168;51.146;17.120;2022-08-07T06:05:36;101205.40;;;17.70
66372;BMP180;53168;51.146;17.120;2022-08-07T06:08:20;101209.60;;;17.88
66372;BMP180;53168;51.146;17.120;2022-08-07T06:11:02;101206.00;;;17.98
66372;BMP180;53168;51.146;17.120;2022-08-07T06:13:37;101209.80;;;18.00
66372;BMP180;53168;51.146;17.120;2022-08-07T06:16:34;101209.20;;;18.10
66372;BMP180;53168;51.146;17.120;2022-08-07T06:19:10;101213.80;;;18.14
66372;BMP180;53168;51.146;17.120;2022-08-07T06:22:06;101213.80;;;18.22
66372;BMP180;53168;51.146;17.120;2022-08-07T06:24:59;101215.80;;;18.30
66372;BMP180;53168;51.146;17.120;2022-08-07T06:27:34;101209.40;;;18.40
66372;BMP180;53168;51.146;17.120;2022-08-07T06:30:28;101206.20;;;18.44
66372;BMP180;53168;51.146;17.120;2022-08-07T06:33:12;101217.60;;;18.50
66372;BMP180;53168;51.146;17.120;2022-08-07T06:35:50;101216.40;;;18.60
66372;BMP180;53168;51.146;17.120;2022-08-07T06:38:47;101222.60;;;18.68
66372;BMP180;53168;51.146;17.120;2022-08-07T06:42:07;101216.40;;;18.80
66372;BMP180;53168;51.146;17.120;2022-08-07T06:45:15;101223.60;;;18.90
66372;BMP180;53168;51.146;17.120;2022-08-07T06:47:56;101226.80;;;18.90
66372;BMP180;53168;51.146;17.120;2022-08-07T06:50:42;101221.40;;;19.00
66372;BMP180;53168;51.146;17.120;2022-08-07T06:53:23;101221.00;;;19.00
66372;BMP180;53168;51.146;17.120;2022-08-07T06:56:18;101220.20;;;19.10
66372;BMP180;53168;51.146;17.120;2022-08-07T06:59:32;101223.80;;;19.20
66372;BMP180;53168;51.146;17.120;2022-08-07T07:02:29;101220.80;;;19.30
66372;BMP180;53168;51.146;17.120;2022-08-07T07:05:24;101224.60;;;19.40
66372;BMP180;53168;51.146;17.120;2022-08-07T07:08:17;101223.40;;;19.50
66372;BMP180;53168;51.146;17.120;2022-08-07T07:10:58;101223.00;;;19.52
66372;BMP180;53168;51.146;17.120;2022-08-07T07:13:38;101217.40;;;19.60
66372;BMP180;53168;51.146;17.120;2022-08-07T07:16:38;101218.40;;;19.70
66372;BMP180;53168;51.146;17.120;2022-08-07T07:19:28;101210.80;;;19.80
66372;BMP180;53168;51.146;17.120;2022-08-07T07:22:24;101210.20;;;19.90
66372;BMP180;53168;51.146;17.120;2022-08-07T07:25:20;101213.00;;;20.00
66372;BMP180;53168;51.146;17.120;2022-08-07T07:28:19;101211.60;;;20.10
66372;BMP180;53168;51.146;17.120;2022-08-07T07:31:20;101206.00;;;20.20
66372;BMP180;53168;51.146;17.120;2022-08-07T07:34:07;101201.40;;;20.30
66372;BMP180;53168;51.146;17.120;2022-08-07T07:36:48;101202.80;;;20.30
66372;BMP180;53168;51.146;17.120;2022-08-07T07:39:26;101200.80;;;20.40
66372;BMP180;53168;51.146;17.120;2022-08-07T07:42:25;101205.60;;;20.50
66372;BMP180;53168;51.146;17.120;2022-08-07T07:45:07;101194.20;;;20.60
66372;BMP180;53168;51.146;17.120;2022-08-07T07:47:49;101199.80;;;20.70
66372;BMP180;53168;51.146;17.120;2022-08-07T07:50:26;101197.00;;;20.70
66372;BMP180;53168;51.146;17.120;2022-08-07T07:53:11;101195.40;;;20.80
66372;BMP180;53168;51.146;17.120;2022-08-07T07:55:59;101196.40;;;20.90
66372;BMP180;53168;51.146;17.120;2022-08-07T07:58:38;101191.00;;;20.90
66372;BMP180;53168;51.146;17.120;2022-08-07T08:01:14;101187.60;;;21.00
66372;BMP180;53168;51.146;17.120;2022-08-07T08:04:11;101189.40;;;21.00
66372;BMP180;53168;51.146;17.120;2022-08-07T08:06:47;101190.40;;;21.02
66372;BMP180;53168;51.146;17.120;2022-08-07T08:09:27;101191.00;;;21.10
66372;BMP180;53168;51.146;17.120;2022-08-07T08:12:01;101197.40;;;21.10
66372;BMP180;53168;51.146;17.120;2022-08-07T08:15:11;101192.40;;;21.08
66372;BMP180;53168;51.146;17.120;2022-08-07T08:17:46;101194.20;;;21.12
66372;BMP180;53168;51.146;17.120;2022-08-07T08:20:31;101198.20;;;21.20
66372;BMP180;53168;51.146;17.120;2022-08-07T08:23:09;101192.80;;;21.30
66372;BMP180;53168;51.146;17.120;2022-08-07T08:26:08;101198.40;;;21.48
66372;BMP180;53168;51.146;17.120;2022-08-07T08:29:02;101194.20;;;21.56
66372;BMP180;53168;51.146;17.120;2022-08-07T08:31:41;101193.00;;;21.60
66372;BMP180;53168;51.146;17.120;2022-08-07T08:34:39;101194.60;;;21.70
66372;BMP180;53168;51.146;17.120;2022-08-07T08:37:18;101195.80;;;21.80
66372;BMP180;53168;51.146;17.120;2022-08-07T08:40:25;101197.20;;;21.90
66372;BMP180;53168;51.146;17.120;2022-08-07T08:43:16;101199.00;;;21.92
66372;BMP180;53168;51.146;17.120;2022-08-07T08:46:11;101190.60;;;22.00
66372;BMP180;53168;51.146;17.120;2022-08-07T08:49:03;101197.20;;;22.10
66372;BMP180;53168;51.146;17.120;2022-08-07T08:51:50;101200.20;;;22.20
66372;BMP180;53168;51.146;17.120;2022-08-07T08:54:50;101200.20;;;22.30
66372;BMP180;53168;51.146;17.120;2022-08-07T08:57:39;101199.20;;;22.40
66372;BMP180;53168;51.146;17.120;2022-08-07T09:00:18;101203.80;;;22.44
66372;BMP180;53168;51.146;17.120;2022-08-07T09:03:05;101201.40;;;22.50
66372;BMP180;53168;51.146;17.120;2022-08-07T09:05:57;101202.80;;;22.50
66372;BMP180;53168;51.146;17.120;2022-08-07T09:08:49;101197.60;;;22.60
66372;BMP180;53168;51.146;17.120;2022-08-07T09:11:40;101198.60;;;22.70
66372;BMP180;53168;51.146;17.120;2022-08-07T09:14:38;101199.20;;;22.80
66372;BMP180;53168;51.146;17.120;2022-08-07T09:17:36;101195.80;;;22.92
66372;BMP180;53168;51.146;17.120;2022-08-07T09:20:47;101194.00;;;22.98
66372;BMP180;53168;51.146;17.120;2022-08-07T09:24:02;101189.80;;;23.02
66372;BMP180;53168;51.146;17.120;2022-08-07T09:27:12;101188.80;;;23.20
66372;BMP180;53168;51.146;17.120;2022-08-07T09:30:03;101185.40;;;23.30
66372;BMP180;53168;51.146;17.120;2022-08-07T09:33:05;101185.20;;;23.30
66372;BMP180;53168;51.146;17.120;2022-08-07T09:36:10;101184.20;;;23.22
66372;BMP180;53168;51.146;17.120;2022-08-07T09:38:53;101175.80;;;23.28
66372;BMP180;53168;51.146;17.120;2022-08-07T09:41:37;101177.60;;;23.40
66372;BMP180;53168;51.146;17.120;2022-08-07T09:44:48;101184.20;;;23.50
66372;BMP180;53168;51.146;17.120;2022-08-07T09:47:55;101179.40;;;23.50
66372;BMP180;53168;51.146;17.120;2022-08-07T09:50:55;101169.40;;;23.52
66372;BMP180;53168;51.146;17.120;2022-08-07T09:53:35;101166.80;;;23.60
66372;BMP180;53168;51.146;17.120;2022-08-07T09:56:42;101166.80;;;23.66
66372;BMP180;53168;51.146;17.120;2022-08-07T09:59:45;101167.00;;;23.70
66372;BMP180;53168;51.146;17.120;2022-08-07T10:03:44;101163.60;;;23.80
66372;BMP180;53168;51.146;17.120;2022-08-07T10:06:57;101159.20;;;23.90
66372;BMP180;53168;51.146;17.120;2022-08-07T10:10:02;101164.60;;;24.00
66372;BMP180;53168;51.146;17.120;2022-08-07T10:13:21;101162.60;;;24.00
66372;BMP180;53168;51.146;17.120;2022-08-07T10:16:37;101159.80;;;24.00
66372;BMP180;53168;51.146;17.120;2022-08-07T10:19:59;101157.20;;;24.10
66372;BMP180;53168;51.146;17.120;2022-08-07T10:26:42;101138.40;;;24.24
66372;BMP180;53168;51.146;17.120;2022-08-07T10:29:54;101140.20;;;24.32
66372;BMP180;53168;51.146;17.120;2022-08-07T10:32:59;101146.60;;;24.50
66372;BMP180;53168;51.146;17.120;2022-08-07T10:36:22;101134.80;;;24.60
66372;BMP180;53168;51.146;17.120;2022-08-07T10:39:11;101131.60;;;24.70
66372;BMP180;53168;51.146;17.120;2022-08-07T10:42:13;101127.60;;;24.70
66372;BMP180;53168;51.146;17.120;2022-08-07T10:45:20;101123.80;;;24.80
66372;BMP180;53168;51.146;17.120;2022-08-07T10:48:35;101123.40;;;24.98
66372;BMP180;53168;51.146;17.120;2022-08-07T10:51:19;101125.20;;;25.00
66372;BMP180;53168;51.146;17.120;2022-08-07T10:54:20;101121.40;;;24.90
66372;BMP180;53168;51.146;17.120;2022-08-07T10:57:10;101116.40;;;24.80
66372;BMP180;53168;51.146;17.120;2022-08-07T11:00:06;101104.40;;;24.70
66372;BMP180;53168;51.146;17.120;2022-08-07T11:03:18;101109.00;;;24.80
66372;BMP180;53168;51.146;17.120;2022-08-07T11:06:18;101109.80;;;24.90
66372;BMP180;53168;51.146;17.120;2022-08-07T11:09:03;101109.00;;;25.00
66372;BMP180;53168;51.146;17.120;2022-08-07T11:11:51;101105.40;;;25.16
66372;BMP180;53168;51.146;17.120;2022-08-07T11:14:38;101102.40;;;25.20
66372;BMP180;53168;51.146;17.120;2022-08-07T11:17:45;101103.20;;;25.30
66372;BMP180;53168;51.146;17.120;2022-08-07T11:20:25;101093.60;;;25.30
66372;BMP180;53168;51.146;17.120;2022-08-07T11:23:13;101101.60;;;25.40
66372;BMP180;53168;51.146;17.120;2022-08-07T11:26:11;101094.60;;;25.40
66372;BMP180;53168;51.146;17.120;2022-08-07T11:28:52;101094.60;;;25.40
66372;BMP180;53168;51.146;17.120;2022-08-07T11:31:37;101087.00;;;25.40
66372;BMP180;53168;51.146;17.120;2022-08-07T11:34:27;101082.20;;;25.48
66372;BMP180;53168;51.146;17.120;2022-08-07T11:37:12;101091.00;;;25.40
66372;BMP180;53168;51.146;17.120;2022-08-07T11:40:16;101084.20;;;25.36
66372;BMP180;53168;51.146;17.120;2022-08-07T11:43:08;101074.60;;;25.44
66372;BMP180;53168;51.146;17.120;2022-08-07T11:46:10;101075.40;;;25.68
66372;BMP180;53168;51.146;17.120;2022-08-07T11:49:27;101073.60;;;25.90
66372;BMP180;53168;51.146;17.120;2022-08-07T11:52:54;101074.40;;;26.20
66372;BMP180;53168;51.146;17.120;2022-08-07T11:56:00;101065.80;;;26.40
66372;BMP180;53168;51.146;17.120;2022-08-07T11:59:14;101063.00;;;26.60
66372;BMP180;53168;51.146;17.120;2022-08-07T12:02:32;101064.80;;;26.72
66372;BMP180;53168;51.146;17.120;2022-08-07T12:05:39;101061.20;;;27.00
66372;BMP180;53168;51.146;17.120;2022-08-07T12:08:25;101062.80;;;27.10
66372;BMP180;53168;51.146;17.120;2022-08-07T12:11:12;101034.40;;;27.82
66372;BMP180;53168;51.146;17.120;2022-08-07T12:14:00;101026.80;;;29.32
66372;BMP180;53168;51.146;17.120;2022-08-07T12:16:50;101029.80;;;30.82
66372;BMP180;53168;51.146;17.120;2022-08-07T12:19:44;101024.80;;;32.20
66372;BMP180;53168;51.146;17.120;2022-08-07T12:22:45;101029.60;;;33.68
66372;BMP180;53168;51.146;17.120;2022-08-07T12:25:38;101033.20;;;35.10
66372;BMP180;53168;51.146;17.120;2022-08-07T12:28:58;101026.80;;;36.32
66372;BMP180;53168;51.146;17.120;2022-08-07T12:31:43;101023.80;;;37.54
66372;BMP180;53168;51.146;17.120;2022-08-07T12:34:42;101028.80;;;38.76
66372;BMP180;53168;51.146;17.120;2022-08-07T12:37:25;101028.60;;;39.74
66372;BMP180;53168;51.146;17.120;2022-08-07T12:40:26;101025.00;;;40.64
66372;BMP180;53168;51.146;17.120;2022-08-07T12:43:25;101019.00;;;41.34
66372;BMP180;53168;51.146;17.120;2022-08-07T12:46:35;101016.00;;;41.96
66372;BMP180;53168;51.146;17.120;2022-08-07T12:49:25;101011.40;;;42.44
66372;BMP180;53168;51.146;17.120;2022-08-07T12:52:33;101010.00;;;42.68
66372;BMP180;53168;51.146;17.120;2022-08-07T12:55:20;101009.20;;;42.96
66372;BMP180;53168;51.146;17.120;2022-08-07T12:58:18;101015.20;;;43.50
66372;BMP180;53168;51.146;17.120;2022-08-07T13:01:15;101004.80;;;43.70
66372;BMP180;53168;51.146;17.120;2022-08-07T13:04:32;101005.80;;;44.32
66372;BMP180;53168;51.146;17.120;2022-08-07T13:11:02;101005.20;;;45.34
66372;BMP180;53168;51.146;17.120;2022-08-07T13:13:57;100997.80;;;45.60
66372;BMP180;53168;51.146;17.120;2022-08-07T13:16:51;100997.00;;;45.92
66372;BMP180;53168;51.146;17.120;2022-08-07T13:19:38;101002.40;;;46.20
66372;BMP180;53168;51.146;17.120;2022-08-07T13:22:28;101004.40;;;46.24
66372;BMP180;53168;51.146;17.120;2022-08-07T13:25:10;101000.00;;;46.50
66372;BMP180;53168;51.146;17.120;2022-08-07T13:28:05;100997.40;;;46.66
66372;BMP180;53168;51.146;17.120;2022-08-07T13:30:53;100997.40;;;46.78
66372;BMP180;53168;51.146;17.120;2022-08-07T13:40:22;100985.20;;;46.20
66372;BMP180;53168;51.146;17.120;2022-08-07T13:43:17;100981.40;;;46.08
66372;BMP180;53168;51.146;17.120;2022-08-07T13:45:59;100975.80;;;46.10
66372;BMP180;53168;51.146;17.120;2022-08-07T13:48:56;100978.80;;;46.18
66372;BMP180;53168;51.146;17.120;2022-08-07T13:51:32;100974.40;;;45.92
66372;BMP180;53168;51.146;17.120;2022-08-07T13:54:32;100971.80;;;46.00
66372;BMP180;53168;51.146;17.120;2022-08-07T13:57:11;100970.00;;;46.08
66372;BMP180;53168;51.146;17.120;2022-08-07T13:59:56;100966.40;;;46.40
66372;BMP180;53168;51.146;17.120;2022-08-07T14:02:45;100962.20;;;46.30
66372;BMP180;53168;51.146;17.120;2022-08-07T14:05:26;100964.80;;;46.30
66372;BMP180;53168;51.146;17.120;2022-08-07T14:08:11;100956.60;;;46.28
66372;BMP180;53168;51.146;17.120;2022-08-07T14:10:46;100960.40;;;46.20
66372;BMP180;53168;51.146;17.120;2022-08-07T14:13:43;100966.60;;;46.10
66372;BMP180;53168;51.146;17.120;2022-08-07T14:16:28;100958.80;;;45.86
66372;BMP180;53168;51.146;17.120;2022-08-07T14:19:28;100952.80;;;45.90
66372;BMP180;53168;51.146;17.120;2022-08-07T14:22:29;100952.60;;;46.14
66372;BMP180;53168;51.146;17.120;2022-08-07T14:25:16;100966.40;;;46.28
66372;BMP180;53168;51.146;17.120;2022-08-07T14:28:01;100949.20;;;45.54
66372;BMP180;53168;51.146;17.120;2022-08-07T14:30:50;100947.80;;;45.76
66372;BMP180;53168;51.146;17.120;2022-08-07T14:33:26;100942.00;;;46.00
66372;BMP180;53168;51.146;17.120;2022-08-07T14:36:17;100941.40;;;46.22
66372;BMP180;53168;51.146;17.120;2022-08-07T14:39:02;100941.40;;;46.42
66372;BMP180;53168;51.146;17.120;2022-08-07T14:41:42;100942.60;;;46.40
66372;BMP180;53168;51.146;17.120;2022-08-07T14:44:54;100941.60;;;46.64
66372;BMP180;53168;51.146;17.120;2022-08-07T14:47:56;100938.40;;;47.04
66372;BMP180;53168;51.146;17.120;2022-08-07T14:50:31;100941.40;;;46.80
66372;BMP180;53168;51.146;17.120;2022-08-07T14:53:09;100934.60;;;46.52
66372;BMP180;53168;51.146;17.120;2022-08-07T14:55:45;100939.40;;;46.30
66372;BMP180;53168;51.146;17.120;2022-08-07T14:58:32;100939.00;;;46.10
66372;BMP180;53168;51.146;17.120;2022-08-07T15:01:10;100940.80;;;45.64
66372;BMP180;53168;51.146;17.120;2022-08-07T15:03:56;100937.20;;;45.20
66372;BMP180;53168;51.146;17.120;2022-08-07T15:06:52;100937.40;;;45.02
66372;BMP180;53168;51.146;17.120;2022-08-07T15:09:28;100935.80;;;45.00
66372;BMP180;53168;51.146;17.120;2022-08-07T15:12:30;100932.60;;;44.90
66372;BMP180;53168;51.146;17.120;2022-08-07T15:15:14;100933.80;;;44.80
66372;BMP180;53168;51.146;17.120;2022-08-07T15:18:22;100934.60;;;44.80
66372;BMP180;53168;51.146;17.120;2022-08-07T15:21:13;100930.60;;;44.64
66372;BMP180;53168;51.146;17.120;2022-08-07T15:24:11;100924.00;;;44.58
66372;BMP180;53168;51.146;17.120;2022-08-07T15:27:15;100930.80;;;44.70
66372;BMP180;53168;51.146;17.120;2022-08-07T15:29:54;100932.80;;;44.78
66372;BMP180;53168;51.146;17.120;2022-08-07T15:32:48;100930.60;;;44.60
66372;BMP180;53168;51.146;17.120;2022-08-07T15:35:37;100928.40;;;44.50
66372;BMP180;53168;51.146;17.120;2022-08-07T15:38:37;100929.40;;;44.34
66372;BMP180;53168;51.146;17.120;2022-08-07T15:41:37;100922.00;;;44.20
66372;BMP180;53168;51.146;17.120;2022-08-07T15:44:44;100917.00;;;44.00
66372;BMP180;53168;51.146;17.120;2022-08-07T15:47:22;100924.80;;;43.92
66372;BMP180;53168;51.146;17.120;2022-08-07T15:50:18;100917.60;;;43.60
66372;BMP180;53168;51.146;17.120;2022-08-07T15:53:15;100922.20;;;43.20
66372;BMP180;53168;51.146;17.120;2022-08-07T15:55:57;100919.20;;;43.10
66372;BMP180;53168;51.146;17.120;2022-08-07T15:58:46;100918.80;;;42.90
66372;BMP180;53168;51.146;17.120;2022-08-07T16:01:27;100911.20;;;42.76
66372;BMP180;53168;51.146;17.120;2022-08-07T16:04:13;100911.00;;;42.56
66372;BMP180;53168;51.146;17.120;2022-08-07T16:06:56;100911.40;;;42.20
66372;BMP180;53168;51.146;17.120;2022-08-07T16:09:46;100911.00;;;42.04
66372;BMP180;53168;51.146;17.120;2022-08-07T16:13:06;100910.40;;;41.80
66372;BMP180;53168;51.146;17.120;2022-08-07T16:16:02;100909.80;;;41.40
66372;BMP180;53168;51.146;17.120;2022-08-07T16:19:25;100911.00;;;41.30
66372;BMP180;53168;51.146;17.120;2022-08-07T16:22:46;100908.60;;;41.10
66372;BMP180;53168;51.146;17.120;2022-08-07T16:26:04;100910.00;;;40.90
66372;BMP180;53168;51.146;17.120;2022-08-07T16:28:56;100909.00;;;40.40
66372;BMP180;53168;51.146;17.120;2022-08-07T16:32:02;100908.20;;;40.00
66372;BMP180;53168;51.146;17.120;2022-08-07T16:35:15;100903.00;;;39.60
66372;BMP180;53168;51.146;17.120;2022-08-07T16:38:45;100905.60;;;39.00
66372;BMP180;53168;51.146;17.120;2022-08-07T16:41:51;100907.40;;;38.30
66372;BMP180;53168;51.146;17.120;2022-08-07T16:44:56;100904.20;;;37.80
66372;BMP180;53168;51.146;17.120;2022-08-07T16:48:29;100905.60;;;37.20
66372;BMP180;53168;51.146;17.120;2022-08-07T16:51:42;100906.40;;;36.78
66372;BMP180;53168;51.146;17.120;2022-08-07T16:54:52;100911.20;;;36.38
66372;BMP180;53168;51.146;17.120;2022-08-07T16:57:40;100907.00;;;35.80
66372;BMP180;53168;51.146;17.120;2022-08-07T17:00:43;100906.80;;;35.30